Minot International Airport
KMOT : now visible

Airfield :











YOU CAN JOIN US ON...

 
LOGIN :

Register | Disclaimer

   EN    FR    IT 

 









Legend :    VFR   Marginal VFR   IFR   Intensive IFR   Very Intensive IFR
Visi :
Ceiling :
>= 8 km
>= 3000ft
5 to 8 km
1000 to 3000 ft
1500m to 5 km
500 to 1000 ft
800 to 1500m
200 to 500 ft
< 800m
< 200 ft
Symbols :   Thunderstorms  Fog  Heavy snow  Heavy precipitations  Wind > 20 kt






- Airport Elevation : 1716 ft
- IATA code : MOT


KMOT - Minot International

CURRENT METAR :
  • 120554Z AUTO 08009KT 8SM OVC050 M14/M17 A3007 RMK AO2 SNE51 SLP230 P0000 60000 T11441172 11144 21156 411441256 58001

EXPIRED METARs :
  • 120540Z AUTO 09009KT 4SM -SN FEW013 OVC050 M14/M17 A3008 RMK AO2 P0000 T11441172
  • 120529Z AUTO 08008KT 2SM -SN SCT015 OVC050 M14/M17 A3008 RMK AO2 P0000 T11441172
  • 120519Z AUTO 09008KT 1 3/4SM -SN BR OVC015 M15/M17 A3008 RMK AO2 P0000 T11501172
  • 120502Z AUTO 09010KT 2 1/2SM -SN BR OVC019 M15/M17 A3008 RMK AO2 P0000 T11501172
  • 120454Z AUTO 09008KT 1 3/4SM -SN BR OVC021 M15/M17 A3008 RMK AO2 SLP235 P0000 T11501172
  • 120437Z AUTO 09007KT 2 1/2SM -SN BR BKN029 OVC060 M15/M17 A3009 RMK AO2 P0000 T11501172
  • 120422Z AUTO 09011KT 3SM -SN SCT039 OVC060 M15/M18 A3008 RMK AO2 P0000 T11501178
  • 120415Z AUTO 09008KT 2 1/2SM -SN SCT027 OVC060 M15/M18 A3008 RMK AO2 P0000 T11501178
  • 120404Z AUTO 09011KT 2 1/2SM -SN BKN021 OVC060 M15/M18 A3008 RMK AO2 P0000 T11501178
  • 120354Z 09010KT 1 1/2SM -SN OVC021 M15/M18 A3008 RMK AO2 SLP234 P0000 T11501178
  • 120339Z 09010KT 1 3/4SM -SN OVC021 M15/M18 A3008 RMK AO2 P0000 T11501178
  • 120326Z 09011KT 2SM -SN OVC020 M15/M18 A3009 RMK AO2 P0000 T11501178

TAF KMOT
Valid from the 12 at 06:00 until the 13 at 06:00 UTC


120538Z 1206/1306 08008KT 2SM -SN OVC015
FM120800 08005KT P6SM BKN009
FM121000 09005KT P6SM BKN027
FM121400 VRB05KT P6SM SCT070
FM130000 14008KT P6SM OVC027
FM130500 14008KT 2SM -SN BKN014



MET'MAP, your aeronautical weather chart ! - Copyright ORBIFLY December 2007 - Disclaimer

ORBIFLY MET'MAP TEAM :

Programming & Development : Alexandra Zaïnal
Concept & original design : Baudouin d'Aumeries
Assistance for programming : Marc-Olivier Méhu
Technical & hardware support : Manuel Goepfert

Contact : metmap@orbifly.com




SOURCES & CREDITS :

   NOAA       Earth
Advisory